createdAt,value
2018-05-13T00:00:16.491Z,29.67
2018-05-13T00:02:44.745Z,29.60
2018-05-13T00:05:13.074Z,28.63
2018-05-13T00:07:42.071Z,28.90
2018-05-13T00:10:10.308Z,27.60
2018-05-13T00:12:38.584Z,29.10
2018-05-13T00:15:06.873Z,28.53
2018-05-13T00:17:35.146Z,27.63
2018-05-13T00:20:03.412Z,26.47
2018-05-13T00:22:31.787Z,28.10
2018-05-13T00:25:00.083Z,26.83
2018-05-13T00:27:28.343Z,25.70
2018-05-13T00:29:56.615Z,27.60
2018-05-13T00:32:24.875Z,27.03
2018-05-13T00:34:53.168Z,27.43
2018-05-13T00:37:21.443Z,28.57
2018-05-13T00:39:49.719Z,30.23
2018-05-13T00:42:17.991Z,27.80
2018-05-13T00:44:46.247Z,29.00
2018-05-13T00:47:14.583Z,28.00
2018-05-13T00:49:42.843Z,31.27
2018-05-13T00:52:11.211Z,34.53
2018-05-13T00:54:51.520Z,37.80
2018-05-13T00:57:20.545Z,36.63
2018-05-13T00:59:48.801Z,36.20
2018-05-13T01:02:17.099Z,32.73
2018-05-13T01:04:45.375Z,30.53
2018-05-13T01:07:13.651Z,30.67
2018-05-13T01:09:41.921Z,29.80
2018-05-13T01:12:10.218Z,29.27
2018-05-13T01:14:38.490Z,28.80
2018-05-13T01:17:06.735Z,30.07
2018-05-13T01:19:35.042Z,30.40
2018-05-13T01:22:05.143Z,29.03
2018-05-13T01:24:33.370Z,29.63
2018-05-13T01:27:02.387Z,29.40
2018-05-13T01:29:30.703Z,28.37
2018-05-13T01:31:58.966Z,30.00
2018-05-13T01:34:27.234Z,29.80
2018-05-13T01:36:55.491Z,30.37
2018-05-13T01:39:23.752Z,29.60
2018-05-13T01:41:52.768Z,30.50
2018-05-13T01:44:21.032Z,31.20
2018-05-13T01:46:49.331Z,30.40
2018-05-13T01:49:17.583Z,30.00
2018-05-13T01:51:45.887Z,30.07
2018-05-13T01:54:14.164Z,30.23
2018-05-13T01:56:42.422Z,31.27
2018-05-13T01:59:10.671Z,30.63
2018-05-13T02:01:39.706Z,30.63
2018-05-13T02:04:07.962Z,29.33
2018-05-13T02:06:36.219Z,30.53
2018-05-13T02:09:05.230Z,30.83
2018-05-13T02:11:33.523Z,31.37
2018-05-13T02:14:01.813Z,30.20
2018-05-13T02:16:30.079Z,31.63
2018-05-13T02:18:58.343Z,32.83
2018-05-13T02:21:26.628Z,31.33
2018-05-13T02:23:54.883Z,30.10
2018-05-13T02:26:23.136Z,33.23
2018-05-13T02:28:52.146Z,31.33
2018-05-13T02:31:20.408Z,31.97
2018-05-13T02:33:49.448Z,30.67
2018-05-13T02:36:17.724Z,31.53
2018-05-13T02:38:46.003Z,32.43
2018-05-13T02:41:14.279Z,33.27
2018-05-13T02:43:42.542Z,31.93
2018-05-13T02:46:10.823Z,32.57
2018-05-13T02:48:39.103Z,33.03
2018-05-13T02:51:07.361Z,32.07
2018-05-13T02:53:35.620Z,32.00
2018-05-13T02:56:03.879Z,32.10
2018-05-13T02:58:32.920Z,32.57
2018-05-13T03:01:01.191Z,32.07
2018-05-13T03:03:29.463Z,33.43
2018-05-13T03:05:57.723Z,33.00
2018-05-13T03:08:25.979Z,34.10
2018-05-13T03:10:55.013Z,34.17
2018-05-13T03:13:23.259Z,34.03
2018-05-13T03:15:51.523Z,32.93
2018-05-13T03:18:20.548Z,33.97
2018-05-13T03:20:48.829Z,34.77
2018-05-13T03:23:17.075Z,34.57
2018-05-13T03:25:45.343Z,34.33
2018-05-13T03:28:14.366Z,35.20
2018-05-13T03:30:42.644Z,33.57
2018-05-13T03:33:10.929Z,35.83
2018-05-13T03:35:39.203Z,34.50
2018-05-13T03:38:07.447Z,34.60
2018-05-13T03:40:35.686Z,33.23
2018-05-13T03:43:04.029Z,33.40
2018-05-13T03:45:32.299Z,33.77
2018-05-13T03:48:00.555Z,34.00
2018-05-13T03:50:28.862Z,33.27
2018-05-13T03:52:57.127Z,32.57
2018-05-13T03:55:25.407Z,32.77
2018-05-13T03:57:53.673Z,33.13
2018-05-13T04:00:21.918Z,32.10
2018-05-13T04:02:50.948Z,34.73
2018-05-13T04:05:19.228Z,32.93
2018-05-13T04:11:17.607Z,32.23
2018-05-13T04:13:57.980Z,34.10
2018-05-13T04:16:26.261Z,32.33
2018-05-13T04:18:54.527Z,30.40
2018-05-13T04:21:22.776Z,29.67
2018-05-13T04:23:51.084Z,29.77
2018-05-13T04:26:19.363Z,29.40
2018-05-13T04:28:47.635Z,29.97
2018-05-13T04:31:15.881Z,29.87
2018-05-13T04:33:44.895Z,29.50
2018-05-13T04:36:13.136Z,29.10
2018-05-13T04:38:42.164Z,29.80
2018-05-13T04:41:10.402Z,30.13
2018-05-13T04:43:39.430Z,30.37
2018-05-13T04:46:07.676Z,30.37
2018-05-13T04:48:36.694Z,28.83
2018-05-13T04:51:04.945Z,29.07
2018-05-13T04:53:33.967Z,29.10
2018-05-13T04:56:02.227Z,30.50
2018-05-13T04:58:30.466Z,29.93
2018-05-13T05:00:58.706Z,29.60
2018-05-13T05:03:26.964Z,28.47
2018-05-13T05:05:55.259Z,30.33
2018-05-13T05:08:23.536Z,29.87
2018-05-13T05:10:51.786Z,29.40
2018-05-13T05:13:20.088Z,29.90
2018-05-13T05:15:48.351Z,30.57
2018-05-13T05:18:16.623Z,30.27
2018-05-13T05:20:44.907Z,29.43
2018-05-13T05:23:13.159Z,30.27
2018-05-13T05:25:41.454Z,31.00
2018-05-13T05:28:09.698Z,30.00
2018-05-13T05:30:38.715Z,30.67
2018-05-13T05:33:06.964Z,29.77
2018-05-13T05:35:35.992Z,30.47
2018-05-13T05:38:04.236Z,30.87
2018-05-13T05:40:32.538Z,30.43
2018-05-13T05:43:00.783Z,30.87
2018-05-13T05:45:29.803Z,29.77
2018-05-13T05:47:58.084Z,29.60
2018-05-13T05:50:26.358Z,30.63
2018-05-13T05:52:54.635Z,29.97
2018-05-13T05:55:22.887Z,30.00
2018-05-13T05:57:51.188Z,29.73
2018-05-13T06:00:19.466Z,30.97
2018-05-13T06:02:47.754Z,31.27
2018-05-13T06:05:16.013Z,31.17
2018-05-13T06:07:44.282Z,30.77
2018-05-13T06:10:12.567Z,30.07
2018-05-13T06:12:40.834Z,29.87
2018-05-13T06:15:09.087Z,31.90
2018-05-13T06:17:37.391Z,31.27
2018-05-13T06:20:05.672Z,30.60
2018-05-13T06:22:33.944Z,30.47
2018-05-13T06:25:02.196Z,29.63
2018-05-13T06:27:30.447Z,28.27
2018-05-13T06:29:59.475Z,30.27
2018-05-13T06:32:27.720Z,31.50
2018-05-13T06:34:56.751Z,31.10
2018-05-13T06:37:25.003Z,33.43
2018-05-13T06:39:53.254Z,31.93
2018-05-13T06:42:22.287Z,32.70
2018-05-13T06:44:50.544Z,33.43
2018-05-13T06:47:18.854Z,32.53
2018-05-13T06:49:47.149Z,31.83
2018-05-13T06:52:15.491Z,33.10
2018-05-13T06:54:43.741Z,33.53
2018-05-13T06:57:12.764Z,34.07
2018-05-13T06:59:41.012Z,31.00
2018-05-13T07:02:09.311Z,31.67
2018-05-13T07:04:37.563Z,33.17
2018-05-13T07:07:05.815Z,32.63
2018-05-13T07:09:34.860Z,32.10
2018-05-13T07:12:03.131Z,32.07
2018-05-13T07:14:31.371Z,32.17
2018-05-13T07:17:00.382Z,31.50
2018-05-13T07:19:28.674Z,32.70
2018-05-13T07:21:56.933Z,31.00
2018-05-13T07:24:25.180Z,31.27
2018-05-13T07:26:53.503Z,30.97
2018-05-13T07:29:21.791Z,32.77
2018-05-13T07:31:50.055Z,32.47
2018-05-13T07:34:18.309Z,31.33
2018-05-13T07:36:46.556Z,32.83
2018-05-13T07:39:15.603Z,29.87
2018-05-13T07:41:43.855Z,31.30
2018-05-13T07:44:12.100Z,31.83
2018-05-13T07:46:41.119Z,33.17
2018-05-13T07:49:09.415Z,31.97
2018-05-13T07:51:37.671Z,31.97
2018-05-13T07:54:05.935Z,32.30
2018-05-13T07:56:34.971Z,29.93
2018-05-13T07:59:03.211Z,30.30
2018-05-13T08:01:31.467Z,30.70
2018-05-13T08:04:00.479Z,30.47
2018-05-13T08:06:28.779Z,30.97
2018-05-13T08:08:57.063Z,32.23
2018-05-13T08:11:25.335Z,28.93
2018-05-13T08:13:53.585Z,29.63
2018-05-13T08:16:21.860Z,30.77
2018-05-13T08:18:50.107Z,28.27
2018-05-13T08:21:19.198Z,30.30
2018-05-13T08:23:47.427Z,29.30
2018-05-13T08:26:15.694Z,29.37
2018-05-13T08:28:43.953Z,27.70
2018-05-13T08:31:12.257Z,31.37
2018-05-13T08:33:40.526Z,30.90
2018-05-13T08:36:08.808Z,29.33
2018-05-13T08:38:37.055Z,28.70
2018-05-13T08:41:05.354Z,29.03
2018-05-13T08:43:33.608Z,27.43
2018-05-13T08:46:01.901Z,25.77
2018-05-13T08:48:30.263Z,26.60
2018-05-13T08:50:58.456Z,27.53
2018-05-13T08:53:26.736Z,27.67
2018-05-13T08:55:55.011Z,28.50
2018-05-13T08:58:23.268Z,27.03
2018-05-13T09:00:51.517Z,27.13
2018-05-13T09:03:19.831Z,27.73
2018-05-13T09:05:48.112Z,28.97
2018-05-13T09:08:16.363Z,28.97
2018-05-13T09:10:44.760Z,29.47
2018-05-13T09:13:13.015Z,27.13
2018-05-13T09:15:41.317Z,27.87
2018-05-13T09:18:09.584Z,26.17
2018-05-13T09:20:37.911Z,26.60
2018-05-13T09:23:06.128Z,26.50
2018-05-13T09:25:34.362Z,25.63
2018-05-13T09:28:03.387Z,25.90
2018-05-13T09:30:31.628Z,25.30
2018-05-13T09:33:00.717Z,25.10
2018-05-13T09:35:28.947Z,28.10
2018-05-13T09:37:57.204Z,27.90
2018-05-13T09:40:25.912Z,25.47
2018-05-13T09:42:54.183Z,24.23
2018-05-13T09:45:22.454Z,22.80
2018-05-13T09:47:50.709Z,23.83
2018-05-13T09:50:18.963Z,22.40
2018-05-13T09:52:48.004Z,20.43
2018-05-13T09:55:16.280Z,18.67
2018-05-13T09:57:44.548Z,19.50
2018-05-13T10:00:12.787Z,18.20
2018-05-13T10:02:41.823Z,16.70
2018-05-13T10:05:10.076Z,15.87
2018-05-13T10:07:38.326Z,18.00
2018-05-13T10:10:07.892Z,16.93
2018-05-13T10:12:36.153Z,14.93
2018-05-13T10:15:04.407Z,13.00
2018-05-13T10:17:32.694Z,14.13
2018-05-13T10:20:00.951Z,15.20
2018-05-13T10:22:29.295Z,15.20
2018-05-13T10:24:57.527Z,14.90
2018-05-13T10:27:25.803Z,12.67
2018-05-13T10:29:54.079Z,10.57
2018-05-13T10:32:22.356Z,11.90
2018-05-13T10:34:50.635Z,11.63
2018-05-13T10:37:18.907Z,11.80
2018-05-13T10:39:47.187Z,9.83
2018-05-13T10:42:16.443Z,10.63
2018-05-13T10:44:45.472Z,9.87
2018-05-13T10:47:13.712Z,9.80
2018-05-13T10:49:42.737Z,8.43
2018-05-13T10:52:10.983Z,9.63
2018-05-13T10:54:40.007Z,9.60
2018-05-13T10:57:08.257Z,9.97
2018-05-13T10:59:37.276Z,9.33
2018-05-13T11:02:05.547Z,9.97
2018-05-13T11:04:33.823Z,9.53
2018-05-13T11:07:02.071Z,9.67
2018-05-13T11:09:30.320Z,10.13
2018-05-13T11:11:58.559Z,8.30
2018-05-13T11:14:26.817Z,7.90
2018-05-13T11:16:55.047Z,8.10
2018-05-13T11:19:23.283Z,7.43
2018-05-13T11:21:51.544Z,7.73
2018-05-13T11:24:19.783Z,6.90
2018-05-13T11:26:48.817Z,6.97
2018-05-13T11:29:17.033Z,6.33
2018-05-13T11:31:45.288Z,6.67
2018-05-13T11:34:13.539Z,6.50
2018-05-13T11:36:41.816Z,6.70
2018-05-13T11:39:10.087Z,6.53
2018-05-13T11:41:38.363Z,6.63
2018-05-13T11:44:06.603Z,6.43
2018-05-13T11:46:35.655Z,6.27
2018-05-13T11:49:03.917Z,5.80
2018-05-13T11:51:32.147Z,6.30
2018-05-13T11:54:01.193Z,6.30
2018-05-13T11:56:29.495Z,6.20
2018-05-13T11:58:58.427Z,6.30
2018-05-13T12:01:26.715Z,6.40
2018-05-13T12:03:54.996Z,6.50
2018-05-13T12:06:23.233Z,6.73
2018-05-13T12:08:52.245Z,6.23
2018-05-13T12:11:20.534Z,6.40
2018-05-13T12:13:48.814Z,7.30
2018-05-13T12:16:17.052Z,6.33
2018-05-13T12:18:46.179Z,6.13
2018-05-13T12:21:14.411Z,6.77
2018-05-13T12:23:42.650Z,6.50
2018-05-13T12:26:10.906Z,6.90
2018-05-13T12:28:39.227Z,6.97
2018-05-13T12:31:07.454Z,6.70
2018-05-13T12:33:36.353Z,7.60
2018-05-13T12:36:04.619Z,7.17
2018-05-13T12:38:32.890Z,6.93
2018-05-13T12:41:01.137Z,6.70
2018-05-13T12:43:30.135Z,7.23
2018-05-13T12:45:59.138Z,6.53
2018-05-13T12:48:27.427Z,6.90
2018-05-13T12:50:55.711Z,7.50
2018-05-13T12:53:23.978Z,7.40
2018-05-13T12:55:52.333Z,7.90
2018-05-13T12:58:20.608Z,8.20
2018-05-13T13:00:48.774Z,7.63
2018-05-13T13:03:17.779Z,8.00
2018-05-13T13:05:46.995Z,8.17
2018-05-13T13:08:15.276Z,8.00
2018-05-13T13:10:43.515Z,7.63
2018-05-13T13:13:12.527Z,7.43
2018-05-13T13:15:40.815Z,7.80
2018-05-13T13:18:09.916Z,7.40
2018-05-13T13:20:38.188Z,7.67
2018-05-13T13:23:06.426Z,7.53
2018-05-13T13:25:35.479Z,7.10
2018-05-13T13:28:03.698Z,7.50
2018-05-13T13:30:32.805Z,7.60
2018-05-13T13:33:00.951Z,7.23
2018-05-13T13:35:30.348Z,7.57
2018-05-13T13:37:58.594Z,7.27
2018-05-13T13:40:26.846Z,7.50
2018-05-13T13:42:55.124Z,7.93
2018-05-13T13:45:23.364Z,7.87
2018-05-13T13:47:52.371Z,7.93
2018-05-13T13:50:20.611Z,7.73
2018-05-13T13:52:48.850Z,8.10
2018-05-13T13:55:17.103Z,7.70
2018-05-13T13:57:45.396Z,7.40
2018-05-13T14:00:13.668Z,8.33
2018-05-13T14:02:41.915Z,8.37
2018-05-13T14:05:10.157Z,8.90
2018-05-13T14:07:38.491Z,8.20
2018-05-13T14:10:06.747Z,8.53
2018-05-13T14:12:35.805Z,8.20
2018-05-13T14:15:04.064Z,7.77
2018-05-13T14:17:32.303Z,7.87
2018-05-13T14:20:00.596Z,8.10
2018-05-13T14:22:29.574Z,8.27
2018-05-13T14:24:57.851Z,8.10
2018-05-13T14:27:26.127Z,7.93
2018-05-13T14:29:54.507Z,8.00
2018-05-13T14:32:22.747Z,7.80
2018-05-13T14:34:51.875Z,8.03
2018-05-13T14:37:20.147Z,8.20
2018-05-13T14:39:48.444Z,8.67
2018-05-13T14:42:17.419Z,7.80
2018-05-13T14:44:45.653Z,8.17
2018-05-13T14:47:14.666Z,7.07
2018-05-13T14:49:42.907Z,7.03
2018-05-13T14:52:11.144Z,7.27
2018-05-13T14:54:39.411Z,7.73
2018-05-13T14:57:07.659Z,7.40
2018-05-13T14:59:35.901Z,7.47
2018-05-13T15:02:04.145Z,7.77
2018-05-13T15:04:32.379Z,6.80
2018-05-13T15:07:01.398Z,7.47
2018-05-13T15:09:29.639Z,6.53
2018-05-13T15:11:58.676Z,6.57
2018-05-13T15:14:26.907Z,6.97
2018-05-13T15:16:55.915Z,6.63
2018-05-13T15:19:24.152Z,6.70
2018-05-13T15:21:53.199Z,7.23
2018-05-13T15:24:21.489Z,6.67
2018-05-13T15:26:49.740Z,6.57
2018-05-13T15:29:17.962Z,6.47
2018-05-13T15:31:46.308Z,6.50
2018-05-13T15:34:14.580Z,7.13
2018-05-13T15:36:42.902Z,6.53
2018-05-13T15:39:11.136Z,6.70
2018-05-13T15:41:39.412Z,6.77
2018-05-13T15:44:07.664Z,7.33
2018-05-13T15:46:35.960Z,7.23
2018-05-13T15:49:04.239Z,6.60
2018-05-13T15:51:32.471Z,6.80
2018-05-13T15:54:01.499Z,6.90
2018-05-13T15:56:29.731Z,7.03
2018-05-13T15:58:58.740Z,6.57
2018-05-13T16:01:27.743Z,6.90
2018-05-13T16:03:56.144Z,6.97
2018-05-13T16:06:24.451Z,6.50
2018-05-13T16:08:53.391Z,6.33
2018-05-13T16:11:21.682Z,6.53
2018-05-13T16:13:49.926Z,5.90
2018-05-13T16:16:18.932Z,5.50
2018-05-13T16:18:47.243Z,5.50
2018-05-13T16:21:15.507Z,4.87
2018-05-13T16:23:43.782Z,5.73
2018-05-13T16:26:12.016Z,5.73
2018-05-13T16:28:41.043Z,5.63
2018-05-13T16:31:09.283Z,5.47
2018-05-13T16:33:38.283Z,5.13
2018-05-13T16:36:07.303Z,5.47
2018-05-13T16:38:35.600Z,5.00
2018-05-13T16:41:04.569Z,4.73
2018-05-13T16:43:32.803Z,4.97
2018-05-13T16:46:01.813Z,4.67
2018-05-13T16:48:30.422Z,4.40
2018-05-13T16:50:58.707Z,4.40
2018-05-13T16:53:26.949Z,4.63
2018-05-13T16:55:55.963Z,4.40
2018-05-13T16:58:24.198Z,4.97
2018-05-13T17:00:53.688Z,3.83
2018-05-13T17:03:21.920Z,4.47
2018-05-13T17:05:50.158Z,3.90
2018-05-13T17:08:19.171Z,3.90
2018-05-13T17:10:47.455Z,3.90
2018-05-13T17:13:15.699Z,4.10
2018-05-13T17:15:44.704Z,3.80
2018-05-13T17:18:13.816Z,4.10
2018-05-13T17:20:42.096Z,4.07
2018-05-13T17:23:10.370Z,4.20
2018-05-13T17:25:38.604Z,4.00
2018-05-13T17:28:07.616Z,4.17
2018-05-13T17:30:36.631Z,3.73
2018-05-13T17:33:04.908Z,3.90
2018-05-13T17:35:33.147Z,4.03
2018-05-13T17:38:02.157Z,4.13
2018-05-13T17:40:30.464Z,4.40
2018-05-13T17:42:58.731Z,4.07
2018-05-13T17:45:26.973Z,4.43
2018-05-13T17:47:55.987Z,4.23
2018-05-13T17:50:24.268Z,4.20
2018-05-13T17:52:52.543Z,3.97
2018-05-13T17:55:20.802Z,3.90
2018-05-13T17:57:49.047Z,4.13
2018-05-13T18:00:17.287Z,3.70
2018-05-13T18:02:45.549Z,4.10
2018-05-13T18:05:13.836Z,4.60
2018-05-13T18:07:42.076Z,4.13
2018-05-13T18:10:10.367Z,4.30
2018-05-13T18:12:38.616Z,4.10
2018-05-13T18:15:07.642Z,3.93
2018-05-13T18:17:35.885Z,4.17
2018-05-13T18:20:04.890Z,4.37
2018-05-13T18:22:33.131Z,4.27
2018-05-13T18:25:01.382Z,4.20
2018-05-13T18:27:29.738Z,4.53
2018-05-13T18:29:57.982Z,4.33
2018-05-13T18:32:26.979Z,3.97
2018-05-13T18:34:55.219Z,3.83
2018-05-13T18:37:23.546Z,4.40
2018-05-13T18:39:51.787Z,4.00
2018-05-13T18:42:20.791Z,4.37
2018-05-13T18:44:49.812Z,4.50
2018-05-13T18:47:18.047Z,4.10
2018-05-13T18:49:47.056Z,4.20
2018-05-13T18:52:15.294Z,4.30
2018-05-13T18:54:43.535Z,3.87
2018-05-13T18:57:11.799Z,4.30
2018-05-13T18:59:40.074Z,4.13
2018-05-13T19:02:08.306Z,4.13
2018-05-13T19:04:36.632Z,4.70
2018-05-13T19:07:04.903Z,4.80
2018-05-13T19:09:33.147Z,4.73
2018-05-13T19:12:02.191Z,4.80
2018-05-13T19:14:30.455Z,5.10
2018-05-13T19:16:58.720Z,4.63
2018-05-13T19:19:26.967Z,5.43
2018-05-13T19:21:55.975Z,4.70
2018-05-13T19:24:24.224Z,4.40
2018-05-13T19:26:53.267Z,4.60
2018-05-13T19:29:21.515Z,5.00
2018-05-13T19:31:49.747Z,4.43
2018-05-13T19:34:18.088Z,5.70
2018-05-13T19:36:46.430Z,5.17
2018-05-13T19:39:14.612Z,4.67
2018-05-13T19:41:42.918Z,4.70
2018-05-13T19:44:11.187Z,4.53
2018-05-13T19:46:39.464Z,4.80
2018-05-13T19:49:07.943Z,5.07
2018-05-13T19:51:36.213Z,5.60
2018-05-13T19:54:04.541Z,4.40
2018-05-13T19:56:32.763Z,4.20
2018-05-13T19:59:01.046Z,4.10
2018-05-13T20:01:29.320Z,4.33
2018-05-13T20:03:57.596Z,4.50
2018-05-13T20:06:25.868Z,4.60
2018-05-13T20:08:54.203Z,4.43
2018-05-13T20:11:22.391Z,4.20
2018-05-13T20:13:51.398Z,4.00
2018-05-13T20:16:19.639Z,4.23
2018-05-13T20:18:47.959Z,4.60
2018-05-13T20:21:16.212Z,4.87
2018-05-13T20:23:45.211Z,3.73
2018-05-13T20:26:13.512Z,3.97
2018-05-13T20:28:41.743Z,3.90
2018-05-13T20:31:10.771Z,4.53
2018-05-13T20:33:39.020Z,4.60
2018-05-13T20:36:08.040Z,4.63
2018-05-13T20:38:36.275Z,4.07
2018-05-13T20:41:05.283Z,4.50
2018-05-13T20:43:33.588Z,4.50
2018-05-13T20:46:01.862Z,4.70
2018-05-13T20:48:30.095Z,4.80
2018-05-13T20:50:59.131Z,4.63
2018-05-13T20:53:27.407Z,4.80
2018-05-13T20:55:55.674Z,4.70
2018-05-13T20:58:23.951Z,4.23
2018-05-13T21:00:52.235Z,4.40
2018-05-13T21:03:20.472Z,5.00
2018-05-13T21:05:49.482Z,4.63
2018-05-13T21:08:17.880Z,4.70
2018-05-13T21:10:46.151Z,4.57
2018-05-13T21:13:14.391Z,4.60
2018-05-13T21:15:43.395Z,4.40
2018-05-13T21:18:11.663Z,4.80
2018-05-13T21:20:40.687Z,4.30
2018-05-13T21:23:08.932Z,4.87
2018-05-13T21:25:37.935Z,4.53
2018-05-13T21:28:06.239Z,4.27
2018-05-13T21:30:34.512Z,4.53
2018-05-13T21:33:02.759Z,4.80
2018-05-13T21:35:31.751Z,4.60
2018-05-13T21:38:00.004Z,4.83
2018-05-13T21:40:28.323Z,4.33
2018-05-13T21:42:56.584Z,4.50
2018-05-13T21:45:25.580Z,4.50
2018-05-13T21:47:53.825Z,4.50
2018-05-13T21:50:22.144Z,4.83
2018-05-13T21:52:50.385Z,4.37
2018-05-13T21:55:19.382Z,4.83
2018-05-13T21:57:48.412Z,4.60
2018-05-13T22:00:16.641Z,4.57
2018-05-13T22:02:45.646Z,4.57
2018-05-13T22:05:14.655Z,4.53
2018-05-13T22:07:42.899Z,4.50
2018-05-13T22:10:11.931Z,4.47
2018-05-13T22:12:40.200Z,4.23
2018-05-13T22:15:08.451Z,4.47
2018-05-13T22:17:37.459Z,4.20
2018-05-13T22:20:05.703Z,4.43
2018-05-13T22:22:34.037Z,4.60
2018-05-13T22:25:02.291Z,4.67
2018-05-13T22:27:30.583Z,3.80
2018-05-13T22:29:58.854Z,4.10
2018-05-13T22:32:27.104Z,4.30
2018-05-13T22:34:55.419Z,4.63
2018-05-13T22:37:23.682Z,4.07
2018-05-13T22:39:51.920Z,4.33
2018-05-13T22:42:20.947Z,3.90
2018-05-13T22:44:49.226Z,4.57
2018-05-13T22:47:17.492Z,4.20
2018-05-13T22:49:46.479Z,4.13
2018-05-13T22:52:14.858Z,4.20
2018-05-13T22:54:43.015Z,4.17
2018-05-13T22:57:12.045Z,4.23
2018-05-13T22:59:40.282Z,4.57
2018-05-13T23:02:09.310Z,4.40
2018-05-13T23:04:37.583Z,3.90
2018-05-13T23:07:05.828Z,4.67
2018-05-13T23:09:34.836Z,4.33
2018-05-13T23:12:03.083Z,4.07
2018-05-13T23:14:31.403Z,4.50
2018-05-13T23:16:59.663Z,4.37
2018-05-13T23:19:27.951Z,4.03
2018-05-13T23:21:56.226Z,4.20
2018-05-13T23:24:24.498Z,4.10
2018-05-13T23:26:52.736Z,4.27
2018-05-13T23:29:21.819Z,4.10
2018-05-13T23:31:50.045Z,4.30
2018-05-13T23:34:18.319Z,3.93
2018-05-13T23:36:46.558Z,4.47
2018-05-13T23:39:15.588Z,4.70
2018-05-13T23:41:43.843Z,4.47
2018-05-13T23:44:12.091Z,4.77
2018-05-13T23:46:41.131Z,4.23
2018-05-13T23:49:09.384Z,4.43
2018-05-13T23:51:37.699Z,4.33
2018-05-13T23:54:05.870Z,4.20
2018-05-13T23:56:34.132Z,4.03
2018-05-13T23:59:02.422Z,4.13
